Ottawa Macdonald-Cartier International Airport
CYOW : now visible

Airfield :











YOU CAN JOIN US ON...

 
LOGIN :

Register | Disclaimer

   EN    FR    IT 

 









Legend :    VFR   Marginal VFR   IFR   Intensive IFR   Very Intensive IFR
Visi :
Ceiling :
>= 8 km
>= 3000ft
5 to 8 km
1000 to 3000 ft
1500m to 5 km
500 to 1000 ft
800 to 1500m
200 to 500 ft
< 800m
< 200 ft
Symbols :   Thunderstorms  Fog  Heavy snow  Heavy precipitations  Wind > 20 kt






- Airport Elevation : 374 ft
- IATA code : YOW


CYOW - Ottawa Macdonald-Cartier International

CURRENT METAR :
  • 170400Z 29012G19KT 15SM FEW042 SCT060 M03/M11 A3003 RMK SF1SC3 SF TR SLP176

EXPIRED METARs :
  • 170300Z 29016KT 15SM BKN062 BKN160 M02/M09 A3001 RMK SC5AC1 AC TR SLP168
  • 170200Z 29011G18KT 15SM FEW042 BKN065 BKN160 M00/M07 A2998 RMK SC2SC4AC1 DIST SH E-S SLP158
  • 170122Z 28007KT 15SM BKN042 OVC054 00/M04 A2997 RMK SC6SC2 VCSH E-SE SLP154

TAF TAF CYOW
Valid from the 17 at 03:00 until the 18 at 00:00 UTC


170238Z 1703/1724 29015KT P6SM BKN060
BECMG 1703/1705 FEW060
FM171200 33012KT P6SM FEW040
FM171700 31008KT P6SM SKC
BECMG 1722/1724 VRB03KT RMK NXT FCST BY 170600Z



MET'MAP, your aeronautical weather chart ! - Copyright ORBIFLY December 2007 - Disclaimer

ORBIFLY MET'MAP TEAM :

Programming & Development : Alexandra Zaïnal
Concept & original design : Baudouin d'Aumeries
Assistance for programming : Marc-Olivier Méhu
Technical & hardware support : Manuel Goepfert

Contact : metmap@orbifly.com




SOURCES & CREDITS :

   NOAA       Earth
Advisory